sensor_id;sensor_type;location;lat;lon;timestamp;pressure;altitude;pressure_sealevel;temperature;humidity
61361;BME280;47232;47.506;18.936;2022-12-08T00:01:46;98187.24;;;1.58;73.94
61361;BME280;47232;47.506;18.936;2022-12-08T00:04:12;98184.22;;;1.59;73.98
61361;BME280;47232;47.506;18.936;2022-12-08T00:06:40;98183.95;;;1.60;74.03
61361;BME280;47232;47.506;18.936;2022-12-08T00:09:32;98183.11;;;1.61;73.83
61361;BME280;47232;47.506;18.936;2022-12-08T00:14:27;98182.41;;;1.59;73.77
61361;BME280;47232;47.506;18.936;2022-12-08T00:16:53;98179.92;;;1.58;74.11
61361;BME280;47232;47.506;18.936;2022-12-08T00:19:20;98176.24;;;1.57;74.08
61361;BME280;47232;47.506;18.936;2022-12-08T00:21:50;98181.91;;;1.56;73.92
61361;BME280;47232;47.506;18.936;2022-12-08T00:24:17;98177.93;;;1.56;74.08
61361;BME280;47232;47.506;18.936;2022-12-08T00:26:43;98182.73;;;1.58;74.27
61361;BME280;47232;47.506;18.936;2022-12-08T00:29:09;98180.43;;;1.64;74.15
61361;BME280;47232;47.506;18.936;2022-12-08T00:31:34;98183.29;;;1.70;74.28
61361;BME280;47232;47.506;18.936;2022-12-08T00:34:00;98180.89;;;1.77;74.48
61361;BME280;47232;47.506;18.936;2022-12-08T00:36:26;98184.27;;;1.83;74.53
61361;BME280;47232;47.506;18.936;2022-12-08T00:38:51;98185.30;;;1.89;74.55
61361;BME280;47232;47.506;18.936;2022-12-08T00:41:22;98183.31;;;1.93;74.49
61361;BME280;47232;47.506;18.936;2022-12-08T00:44:09;98186.64;;;1.96;74.44
61361;BME280;47232;47.506;18.936;2022-12-08T00:46:35;98188.64;;;2.00;74.56
61361;BME280;47232;47.506;18.936;2022-12-08T00:49:01;98190.16;;;2.01;74.45
61361;BME280;47232;47.506;18.936;2022-12-08T00:51:26;98189.36;;;2.01;74.39
61361;BME280;47232;47.506;18.936;2022-12-08T00:53:52;98188.04;;;2.02;74.35
61361;BME280;47232;47.506;18.936;2022-12-08T00:56:17;98190.94;;;2.00;74.24
61361;BME280;47232;47.506;18.936;2022-12-08T00:58:42;98189.45;;;1.98;74.23
61361;BME280;47232;47.506;18.936;2022-12-08T01:01:12;98195.70;;;1.96;74.29
61361;BME280;47232;47.506;18.936;2022-12-08T01:03:40;98190.02;;;1.93;74.22
61361;BME280;47232;47.506;18.936;2022-12-08T01:06:06;98192.27;;;1.92;74.36
61361;BME280;47232;47.506;18.936;2022-12-08T01:08:33;98194.15;;;1.93;74.17
61361;BME280;47232;47.506;18.936;2022-12-08T01:11:06;98192.62;;;1.95;74.24
61361;BME280;47232;47.506;18.936;2022-12-08T01:13:32;98190.51;;;1.98;74.20
61361;BME280;47232;47.506;18.936;2022-12-08T01:15:58;98195.68;;;2.01;74.10
61361;BME280;47232;47.506;18.936;2022-12-08T01:18:25;98190.69;;;2.04;74.13
61361;BME280;47232;47.506;18.936;2022-12-08T01:20:51;98192.05;;;2.05;73.87
61361;BME280;47232;47.506;18.936;2022-12-08T01:23:16;98189.23;;;2.06;73.96
61361;BME280;47232;47.506;18.936;2022-12-08T01:25:42;98189.27;;;2.06;73.87
61361;BME280;47232;47.506;18.936;2022-12-08T01:28:07;98189.44;;;2.05;73.79
61361;BME280;47232;47.506;18.936;2022-12-08T01:30:33;98193.45;;;2.03;73.64
61361;BME280;47232;47.506;18.936;2022-12-08T01:32:58;98189.83;;;2.00;73.47
61361;BME280;47232;47.506;18.936;2022-12-08T01:35:24;98189.39;;;1.95;73.32
61361;BME280;47232;47.506;18.936;2022-12-08T01:37:50;98190.35;;;1.90;73.30
61361;BME280;47232;47.506;18.936;2022-12-08T01:40:15;98184.16;;;1.84;73.26
61361;BME280;47232;47.506;18.936;2022-12-08T01:42:41;98185.77;;;1.78;73.37
61361;BME280;47232;47.506;18.936;2022-12-08T01:45:24;98182.86;;;1.70;73.11
61361;BME280;47232;47.506;18.936;2022-12-08T01:47:56;98182.27;;;1.62;73.13
61361;BME280;47232;47.506;18.936;2022-12-08T01:50:23;98182.17;;;1.56;73.22
61361;BME280;47232;47.506;18.936;2022-12-08T01:52:58;98174.70;;;1.49;73.27
61361;BME280;47232;47.506;18.936;2022-12-08T01:55:31;98175.69;;;1.44;73.39
61361;BME280;47232;47.506;18.936;2022-12-08T01:58:02;98175.73;;;1.42;73.46
61361;BME280;47232;47.506;18.936;2022-12-08T02:00:29;98173.17;;;1.41;73.75
61361;BME280;47232;47.506;18.936;2022-12-08T02:03:03;98174.61;;;1.42;73.85
61361;BME280;47232;47.506;18.936;2022-12-08T02:05:32;98173.46;;;1.45;73.73
61361;BME280;47232;47.506;18.936;2022-12-08T02:08:01;98169.98;;;1.49;73.78
61361;BME280;47232;47.506;18.936;2022-12-08T02:10:33;98169.21;;;1.53;73.81
61361;BME280;47232;47.506;18.936;2022-12-08T02:12:59;98161.91;;;1.55;73.65
61361;BME280;47232;47.506;18.936;2022-12-08T02:16:14;98158.73;;;1.56;73.72
61361;BME280;47232;47.506;18.936;2022-12-08T02:21:17;98148.00;;;1.56;73.81
61361;BME280;47232;47.506;18.936;2022-12-08T02:23:56;98153.88;;;1.54;73.45
61361;BME280;47232;47.506;18.936;2022-12-08T02:29:44;98151.45;;;1.45;73.55
61361;BME280;47232;47.506;18.936;2022-12-08T02:35:14;98153.94;;;1.38;73.73
61361;BME280;47232;47.506;18.936;2022-12-08T02:37:48;98149.19;;;1.34;73.70
61361;BME280;47232;47.506;18.936;2022-12-08T02:40:35;98149.91;;;1.30;73.73
61361;BME280;47232;47.506;18.936;2022-12-08T02:43:24;98144.05;;;1.30;73.75
61361;BME280;47232;47.506;18.936;2022-12-08T02:45:58;98140.91;;;1.34;74.23
61361;BME280;47232;47.506;18.936;2022-12-08T02:48:28;98142.39;;;1.41;74.63
61361;BME280;47232;47.506;18.936;2022-12-08T02:50:54;98141.49;;;1.49;74.78
61361;BME280;47232;47.506;18.936;2022-12-08T02:53:20;98143.20;;;1.59;74.93
61361;BME280;47232;47.506;18.936;2022-12-08T02:55:59;98137.25;;;1.68;75.07
61361;BME280;47232;47.506;18.936;2022-12-08T03:03:32;98136.71;;;1.87;74.89
61361;BME280;47232;47.506;18.936;2022-12-08T03:09:14;98129.66;;;1.90;74.87
61361;BME280;47232;47.506;18.936;2022-12-08T03:11:48;98130.41;;;1.91;74.92
61361;BME280;47232;47.506;18.936;2022-12-08T03:14:18;98129.73;;;1.90;74.82
61361;BME280;47232;47.506;18.936;2022-12-08T03:16:52;98130.23;;;1.88;74.90
61361;BME280;47232;47.506;18.936;2022-12-08T03:19:25;98131.66;;;1.85;74.78
61361;BME280;47232;47.506;18.936;2022-12-08T03:21:54;98127.09;;;1.84;74.91
61361;BME280;47232;47.506;18.936;2022-12-08T03:24:30;98130.91;;;1.83;75.01
61361;BME280;47232;47.506;18.936;2022-12-08T03:27:04;98125.81;;;1.83;75.00
61361;BME280;47232;47.506;18.936;2022-12-08T03:29:31;98126.20;;;1.87;75.13
61361;BME280;47232;47.506;18.936;2022-12-08T03:32:02;98129.09;;;1.92;75.13
61361;BME280;47232;47.506;18.936;2022-12-08T03:34:32;98124.14;;;2.00;75.34
61361;BME280;47232;47.506;18.936;2022-12-08T03:36:59;98126.39;;;2.05;75.40
61361;BME280;47232;47.506;18.936;2022-12-08T03:39:26;98125.93;;;2.11;75.29
61361;BME280;47232;47.506;18.936;2022-12-08T03:41:51;98128.71;;;2.15;75.44
61361;BME280;47232;47.506;18.936;2022-12-08T03:44:17;98126.44;;;2.19;75.43
61361;BME280;47232;47.506;18.936;2022-12-08T03:46:42;98122.30;;;2.23;75.45
61361;BME280;47232;47.506;18.936;2022-12-08T03:49:07;98126.73;;;2.24;75.22
61361;BME280;47232;47.506;18.936;2022-12-08T03:51:33;98123.48;;;2.26;75.23
61361;BME280;47232;47.506;18.936;2022-12-08T03:53:59;98117.70;;;2.25;75.24
61361;BME280;47232;47.506;18.936;2022-12-08T03:56:33;98117.06;;;2.25;75.31
61361;BME280;47232;47.506;18.936;2022-12-08T03:58:59;98120.56;;;2.24;75.49
61361;BME280;47232;47.506;18.936;2022-12-08T04:01:25;98117.20;;;2.23;75.34
61361;BME280;47232;47.506;18.936;2022-12-08T04:03:51;98113.02;;;2.21;75.44
61361;BME280;47232;47.506;18.936;2022-12-08T04:06:17;98114.92;;;2.23;75.52
61361;BME280;47232;47.506;18.936;2022-12-08T04:08:43;98113.71;;;2.26;75.57
61361;BME280;47232;47.506;18.936;2022-12-08T04:11:09;98110.96;;;2.30;75.56
61361;BME280;47232;47.506;18.936;2022-12-08T04:13:36;98110.60;;;2.37;75.71
61361;BME280;47232;47.506;18.936;2022-12-08T04:16:05;98102.86;;;2.42;75.66
61361;BME280;47232;47.506;18.936;2022-12-08T04:18:32;98099.67;;;2.49;75.90
61361;BME280;47232;47.506;18.936;2022-12-08T04:20:58;98095.91;;;2.53;75.67
61361;BME280;47232;47.506;18.936;2022-12-08T04:23:24;98091.51;;;2.57;75.43
61361;BME280;47232;47.506;18.936;2022-12-08T04:25:50;98092.63;;;2.60;75.30
61361;BME280;47232;47.506;18.936;2022-12-08T04:28:16;98094.17;;;2.60;75.34
61361;BME280;47232;47.506;18.936;2022-12-08T04:30:42;98092.59;;;2.60;75.27
61361;BME280;47232;47.506;18.936;2022-12-08T04:33:07;98093.11;;;2.59;75.36
61361;BME280;47232;47.506;18.936;2022-12-08T04:35:33;98090.45;;;2.58;75.39
61361;BME280;47232;47.506;18.936;2022-12-08T04:37:58;98091.67;;;2.56;75.25
61361;BME280;47232;47.506;18.936;2022-12-08T04:40:24;98092.73;;;2.55;75.28
61361;BME280;47232;47.506;18.936;2022-12-08T04:42:50;98098.25;;;2.54;75.40
61361;BME280;47232;47.506;18.936;2022-12-08T04:45:15;98097.77;;;2.54;75.35
61361;BME280;47232;47.506;18.936;2022-12-08T04:47:43;98098.09;;;2.55;75.28
61361;BME280;47232;47.506;18.936;2022-12-08T04:50:09;98093.73;;;2.57;75.35
61361;BME280;47232;47.506;18.936;2022-12-08T04:52:35;98092.31;;;2.62;75.48
61361;BME280;47232;47.506;18.936;2022-12-08T04:55:01;98093.59;;;2.68;75.50
61361;BME280;47232;47.506;18.936;2022-12-08T04:57:26;98092.96;;;2.74;75.42
61361;BME280;47232;47.506;18.936;2022-12-08T04:59:52;98093.82;;;2.80;75.54
61361;BME280;47232;47.506;18.936;2022-12-08T05:02:17;98094.08;;;2.84;75.38
61361;BME280;47232;47.506;18.936;2022-12-08T05:04:43;98094.55;;;2.87;75.34
61361;BME280;47232;47.506;18.936;2022-12-08T05:07:08;98089.36;;;2.89;75.29
61361;BME280;47232;47.506;18.936;2022-12-08T05:09:34;98088.03;;;2.91;75.23
61361;BME280;47232;47.506;18.936;2022-12-08T05:11:59;98088.66;;;2.92;75.15
61361;BME280;47232;47.506;18.936;2022-12-08T05:14:25;98087.08;;;2.92;75.09
61361;BME280;47232;47.506;18.936;2022-12-08T05:16:50;98095.10;;;2.91;75.07
61361;BME280;47232;47.506;18.936;2022-12-08T05:19:16;98096.05;;;2.89;74.96
61361;BME280;47232;47.506;18.936;2022-12-08T05:21:42;98096.31;;;2.88;75.11
61361;BME280;47232;47.506;18.936;2022-12-08T05:24:08;98103.02;;;2.85;75.09
61361;BME280;47232;47.506;18.936;2022-12-08T05:26:33;98098.29;;;2.82;75.16
61361;BME280;47232;47.506;18.936;2022-12-08T05:28:59;98095.78;;;2.83;74.97
61361;BME280;47232;47.506;18.936;2022-12-08T05:31:24;98092.91;;;2.86;75.13
61361;BME280;47232;47.506;18.936;2022-12-08T05:33:50;98083.23;;;2.89;75.09
61361;BME280;47232;47.506;18.936;2022-12-08T05:36:16;98077.59;;;2.95;75.18
61361;BME280;47232;47.506;18.936;2022-12-08T05:38:43;98082.17;;;3.00;75.11
61361;BME280;47232;47.506;18.936;2022-12-08T05:41:13;98076.38;;;3.03;74.98
61361;BME280;47232;47.506;18.936;2022-12-08T05:43:39;98071.01;;;3.04;75.06
61361;BME280;47232;47.506;18.936;2022-12-08T05:46:05;98067.01;;;3.04;74.96
61361;BME280;47232;47.506;18.936;2022-12-08T05:48:31;98068.34;;;3.04;74.87
61361;BME280;47232;47.506;18.936;2022-12-08T05:50:57;98071.11;;;3.03;74.88
61361;BME280;47232;47.506;18.936;2022-12-08T05:53:22;98073.71;;;3.01;74.74
61361;BME280;47232;47.506;18.936;2022-12-08T05:55:47;98075.84;;;2.98;74.79
61361;BME280;47232;47.506;18.936;2022-12-08T05:58:18;98075.36;;;2.95;74.72
61361;BME280;47232;47.506;18.936;2022-12-08T06:00:49;98077.71;;;2.92;74.88
61361;BME280;47232;47.506;18.936;2022-12-08T06:03:16;98077.60;;;2.88;74.80
61361;BME280;47232;47.506;18.936;2022-12-08T06:05:44;98079.73;;;2.85;74.90
61361;BME280;47232;47.506;18.936;2022-12-08T06:08:10;98086.42;;;2.82;74.89
61361;BME280;47232;47.506;18.936;2022-12-08T06:10:40;98085.58;;;2.81;75.00
61361;BME280;47232;47.506;18.936;2022-12-08T06:13:06;98090.20;;;2.83;75.04
61361;BME280;47232;47.506;18.936;2022-12-08T06:15:34;98089.14;;;2.86;75.18
61361;BME280;47232;47.506;18.936;2022-12-08T06:17:59;98085.89;;;2.89;75.17
61361;BME280;47232;47.506;18.936;2022-12-08T06:20:27;98087.59;;;2.93;75.14
61361;BME280;47232;47.506;18.936;2022-12-08T06:22:54;98087.96;;;2.97;75.28
61361;BME280;47232;47.506;18.936;2022-12-08T06:25:20;98088.66;;;2.99;75.14
61361;BME280;47232;47.506;18.936;2022-12-08T06:27:45;98093.71;;;3.01;75.09
61361;BME280;47232;47.506;18.936;2022-12-08T06:30:14;98089.35;;;3.01;75.15
61361;BME280;47232;47.506;18.936;2022-12-08T06:32:42;98088.39;;;3.02;74.95
61361;BME280;47232;47.506;18.936;2022-12-08T06:35:08;98097.28;;;3.01;75.02
61361;BME280;47232;47.506;18.936;2022-12-08T06:37:34;98092.33;;;2.99;74.85
61361;BME280;47232;47.506;18.936;2022-12-08T06:39:59;98088.45;;;2.96;74.98
61361;BME280;47232;47.506;18.936;2022-12-08T06:42:28;98091.05;;;2.94;74.95
61361;BME280;47232;47.506;18.936;2022-12-08T06:45:14;98095.05;;;2.92;75.00
61361;BME280;47232;47.506;18.936;2022-12-08T06:47:40;98099.56;;;2.90;75.14
61361;BME280;47232;47.506;18.936;2022-12-08T06:50:07;98103.13;;;2.87;75.17
61361;BME280;47232;47.506;18.936;2022-12-08T06:52:40;98099.40;;;2.85;75.15
61361;BME280;47232;47.506;18.936;2022-12-08T06:55:07;98102.22;;;2.85;75.19
61361;BME280;47232;47.506;18.936;2022-12-08T06:57:33;98101.31;;;2.87;75.25
61361;BME280;47232;47.506;18.936;2022-12-08T06:59:59;98102.66;;;2.94;75.19
61361;BME280;47232;47.506;18.936;2022-12-08T07:02:25;98106.21;;;3.02;75.27
61361;BME280;47232;47.506;18.936;2022-12-08T07:04:50;98101.00;;;3.10;75.37
61361;BME280;47232;47.506;18.936;2022-12-08T07:07:16;98100.35;;;3.15;75.21
61361;BME280;47232;47.506;18.936;2022-12-08T07:09:41;98097.59;;;3.20;75.25
61361;BME280;47232;47.506;18.936;2022-12-08T07:12:07;98096.98;;;3.25;75.14
61361;BME280;47232;47.506;18.936;2022-12-08T07:14:32;98099.77;;;3.27;75.17
61361;BME280;47232;47.506;18.936;2022-12-08T07:16:58;98101.03;;;3.29;75.19
61361;BME280;47232;47.506;18.936;2022-12-08T07:19:23;98102.73;;;3.30;75.13
61361;BME280;47232;47.506;18.936;2022-12-08T07:21:49;98105.71;;;3.31;75.11
61361;BME280;47232;47.506;18.936;2022-12-08T07:24:14;98100.19;;;3.31;75.12
61361;BME280;47232;47.506;18.936;2022-12-08T07:26:40;98097.89;;;3.31;75.08
61361;BME280;47232;47.506;18.936;2022-12-08T07:29:06;98095.83;;;3.29;74.79
61361;BME280;47232;47.506;18.936;2022-12-08T07:31:31;98094.81;;;3.27;74.14
61361;BME280;47232;47.506;18.936;2022-12-08T07:33:57;98094.50;;;3.28;73.95
61361;BME280;47232;47.506;18.936;2022-12-08T07:36:26;98088.21;;;3.28;73.57
61361;BME280;47232;47.506;18.936;2022-12-08T07:38:52;98087.36;;;3.28;73.27
61361;BME280;47232;47.506;18.936;2022-12-08T07:41:21;98090.71;;;3.30;73.11
61361;BME280;47232;47.506;18.936;2022-12-08T07:43:47;98089.64;;;3.34;73.05
61361;BME280;47232;47.506;18.936;2022-12-08T07:46:14;98085.10;;;3.39;72.57
61361;BME280;47232;47.506;18.936;2022-12-08T07:48:41;98088.02;;;3.45;72.58
61361;BME280;47232;47.506;18.936;2022-12-08T07:51:06;98086.61;;;3.52;72.20
61361;BME280;47232;47.506;18.936;2022-12-08T07:53:32;98083.73;;;3.57;71.96
61361;BME280;47232;47.506;18.936;2022-12-08T07:55:58;98087.92;;;3.61;71.48
61361;BME280;47232;47.506;18.936;2022-12-08T07:58:24;98096.59;;;3.65;71.22
61361;BME280;47232;47.506;18.936;2022-12-08T08:00:50;98087.64;;;3.70;70.97
61361;BME280;47232;47.506;18.936;2022-12-08T08:03:19;98084.27;;;3.73;70.53
61361;BME280;47232;47.506;18.936;2022-12-08T08:05:47;98090.13;;;3.74;70.30
61361;BME280;47232;47.506;18.936;2022-12-08T08:08:15;98086.51;;;3.73;69.98
61361;BME280;47232;47.506;18.936;2022-12-08T08:10:41;98093.91;;;3.73;69.80
61361;BME280;47232;47.506;18.936;2022-12-08T08:13:14;98098.70;;;3.73;69.74
61361;BME280;47232;47.506;18.936;2022-12-08T08:15:39;98093.27;;;3.74;69.75
61361;BME280;47232;47.506;18.936;2022-12-08T08:18:06;98091.71;;;3.76;69.85
61361;BME280;47232;47.506;18.936;2022-12-08T08:20:31;98092.55;;;3.78;70.08
61361;BME280;47232;47.506;18.936;2022-12-08T08:22:59;98089.84;;;3.80;69.74
61361;BME280;47232;47.506;18.936;2022-12-08T08:25:28;98088.27;;;3.85;69.81
61361;BME280;47232;47.506;18.936;2022-12-08T08:27:53;98093.95;;;3.92;69.79
61361;BME280;47232;47.506;18.936;2022-12-08T08:30:19;98089.68;;;4.02;69.78
61361;BME280;47232;47.506;18.936;2022-12-08T08:32:45;98083.95;;;4.12;69.57
61361;BME280;47232;47.506;18.936;2022-12-08T08:35:11;98081.34;;;4.21;69.44
61361;BME280;47232;47.506;18.936;2022-12-08T08:37:36;98086.36;;;4.30;69.02
61361;BME280;47232;47.506;18.936;2022-12-08T08:40:02;98087.14;;;4.34;68.85
61361;BME280;47232;47.506;18.936;2022-12-08T08:42:28;98087.05;;;4.38;68.06
61361;BME280;47232;47.506;18.936;2022-12-08T08:44:53;98082.07;;;4.43;68.19
61361;BME280;47232;47.506;18.936;2022-12-08T08:47:19;98081.56;;;4.48;68.29
61361;BME280;47232;47.506;18.936;2022-12-08T08:49:44;98084.41;;;4.51;67.78
61361;BME280;47232;47.506;18.936;2022-12-08T08:52:10;98079.02;;;4.53;67.56
61361;BME280;47232;47.506;18.936;2022-12-08T08:54:38;98070.34;;;4.52;67.34
61361;BME280;47232;47.506;18.936;2022-12-08T08:57:04;98068.73;;;4.51;67.15
61361;BME280;47232;47.506;18.936;2022-12-08T08:59:33;98067.73;;;4.50;66.91
61361;BME280;47232;47.506;18.936;2022-12-08T09:01:58;98080.45;;;4.48;66.93
61361;BME280;47232;47.506;18.936;2022-12-08T09:04:26;98087.38;;;4.47;66.84
61361;BME280;47232;47.506;18.936;2022-12-08T09:06:52;98085.20;;;4.45;66.81
61361;BME280;47232;47.506;18.936;2022-12-08T09:09:17;98081.13;;;4.41;66.64
61361;BME280;47232;47.506;18.936;2022-12-08T09:11:43;98073.84;;;4.38;66.73
61361;BME280;47232;47.506;18.936;2022-12-08T09:14:11;98067.52;;;4.37;66.94
61361;BME280;47232;47.506;18.936;2022-12-08T09:16:37;98074.02;;;4.35;66.87
61361;BME280;47232;47.506;18.936;2022-12-08T09:19:02;98069.73;;;4.33;66.70
61361;BME280;47232;47.506;18.936;2022-12-08T09:21:30;98066.95;;;4.33;66.57
61361;BME280;47232;47.506;18.936;2022-12-08T09:23:57;98070.83;;;4.33;66.58
61361;BME280;47232;47.506;18.936;2022-12-08T09:26:24;98076.66;;;4.32;66.66
61361;BME280;47232;47.506;18.936;2022-12-08T09:28:55;98067.86;;;4.33;66.53
61361;BME280;47232;47.506;18.936;2022-12-08T09:31:21;98060.77;;;4.32;66.63
61361;BME280;47232;47.506;18.936;2022-12-08T09:33:53;98061.61;;;4.33;66.87
61361;BME280;47232;47.506;18.936;2022-12-08T09:36:19;98056.65;;;4.34;66.87
61361;BME280;47232;47.506;18.936;2022-12-08T09:38:44;98056.23;;;4.39;67.29
61361;BME280;47232;47.506;18.936;2022-12-08T09:41:33;98050.00;;;4.48;67.20
61361;BME280;47232;47.506;18.936;2022-12-08T09:46:54;98032.07;;;4.63;66.68
61361;BME280;47232;47.506;18.936;2022-12-08T09:49:25;98026.16;;;4.71;66.70
61361;BME280;47232;47.506;18.936;2022-12-08T09:51:52;98023.52;;;4.79;66.73
61361;BME280;47232;47.506;18.936;2022-12-08T09:54:27;98016.16;;;4.85;65.93
61361;BME280;47232;47.506;18.936;2022-12-08T09:56:58;98030.77;;;4.87;65.91
61361;BME280;47232;47.506;18.936;2022-12-08T09:59:31;98035.75;;;4.90;65.33
61361;BME280;47232;47.506;18.936;2022-12-08T10:01:59;98031.23;;;4.88;65.27
61361;BME280;47232;47.506;18.936;2022-12-08T10:04:27;98032.53;;;4.87;65.23
61361;BME280;47232;47.506;18.936;2022-12-08T10:07:16;98044.06;;;4.85;65.25
61361;BME280;47232;47.506;18.936;2022-12-08T10:10:10;98041.09;;;4.84;65.34
61361;BME280;47232;47.506;18.936;2022-12-08T10:13:17;98041.27;;;4.86;65.29
61361;BME280;47232;47.506;18.936;2022-12-08T10:18:26;98029.51;;;4.84;65.48
61361;BME280;47232;47.506;18.936;2022-12-08T10:20:56;98030.51;;;4.85;65.15
61361;BME280;47232;47.506;18.936;2022-12-08T10:23:34;98018.71;;;4.86;65.34
61361;BME280;47232;47.506;18.936;2022-12-08T10:26:15;98014.39;;;4.88;65.29
61361;BME280;47232;47.506;18.936;2022-12-08T10:28:41;98015.77;;;4.94;65.11
61361;BME280;47232;47.506;18.936;2022-12-08T10:31:20;98008.63;;;4.98;64.90
61361;BME280;47232;47.506;18.936;2022-12-08T10:34:01;98001.75;;;5.03;64.76
61361;BME280;47232;47.506;18.936;2022-12-08T10:42:18;97984.67;;;5.19;64.60
61361;BME280;47232;47.506;18.936;2022-12-08T10:44:59;97976.43;;;5.25;63.52
61361;BME280;47232;47.506;18.936;2022-12-08T10:47:34;97970.00;;;5.28;64.06
61361;BME280;47232;47.506;18.936;2022-12-08T10:52:52;97965.44;;;5.39;63.34
61361;BME280;47232;47.506;18.936;2022-12-08T10:55:23;97962.16;;;5.46;63.43
61361;BME280;47232;47.506;18.936;2022-12-08T10:57:49;97958.34;;;5.53;63.24
61361;BME280;47232;47.506;18.936;2022-12-08T11:00:21;97955.27;;;5.58;62.94
61361;BME280;47232;47.506;18.936;2022-12-08T11:02:57;97951.62;;;5.64;62.68
61361;BME280;47232;47.506;18.936;2022-12-08T11:05:27;97946.27;;;5.69;62.20
61361;BME280;47232;47.506;18.936;2022-12-08T11:07:56;97944.97;;;5.71;62.15
61361;BME280;47232;47.506;18.936;2022-12-08T11:10:34;97938.89;;;5.73;62.24
61361;BME280;47232;47.506;18.936;2022-12-08T11:13:05;97936.03;;;5.72;61.93
61361;BME280;47232;47.506;18.936;2022-12-08T11:15:39;97927.10;;;5.72;61.57
61361;BME280;47232;47.506;18.936;2022-12-08T11:18:08;97923.86;;;5.71;61.55
61361;BME280;47232;47.506;18.936;2022-12-08T11:20:43;97910.54;;;5.69;61.40
61361;BME280;47232;47.506;18.936;2022-12-08T11:23:20;97906.38;;;5.64;60.90
61361;BME280;47232;47.506;18.936;2022-12-08T11:25:47;97898.93;;;5.58;60.99
61361;BME280;47232;47.506;18.936;2022-12-08T11:28:15;97891.31;;;5.52;61.18
61361;BME280;47232;47.506;18.936;2022-12-08T11:30:46;97881.07;;;5.48;61.07
61361;BME280;47232;47.506;18.936;2022-12-08T11:33:21;97877.69;;;5.41;60.56
61361;BME280;47232;47.506;18.936;2022-12-08T11:36:00;97879.86;;;5.38;60.73
61361;BME280;47232;47.506;18.936;2022-12-08T11:38:27;97874.41;;;5.34;60.73
61361;BME280;47232;47.506;18.936;2022-12-08T11:40:57;97871.65;;;5.33;60.77
61361;BME280;47232;47.506;18.936;2022-12-08T11:46:07;97868.33;;;5.27;61.11
61361;BME280;47232;47.506;18.936;2022-12-08T11:51:17;97865.12;;;5.27;61.16
61361;BME280;47232;47.506;18.936;2022-12-08T11:53:50;97863.76;;;5.28;61.31
61361;BME280;47232;47.506;18.936;2022-12-08T12:00:01;97858.58;;;5.28;61.37
61361;BME280;47232;47.506;18.936;2022-12-08T12:01:56;97858.73;;;5.26;61.49
61361;BME280;47232;47.506;18.936;2022-12-08T12:04:40;97870.60;;;5.24;61.66
61361;BME280;47232;47.506;18.936;2022-12-08T12:15:32;97858.09;;;5.17;62.18
61361;BME280;47232;47.506;18.936;2022-12-08T12:20:41;97856.96;;;5.08;62.26
61361;BME280;47232;47.506;18.936;2022-12-08T12:23:22;97855.29;;;5.06;62.21
61361;BME280;47232;47.506;18.936;2022-12-08T12:26:00;97858.73;;;5.04;62.06
61361;BME280;47232;47.506;18.936;2022-12-08T12:28:59;97860.38;;;5.00;61.54
61361;BME280;47232;47.506;18.936;2022-12-08T12:31:35;97862.86;;;4.97;61.44
61361;BME280;47232;47.506;18.936;2022-12-08T12:36:48;97858.48;;;4.88;61.07
61361;BME280;47232;47.506;18.936;2022-12-08T12:39:20;97864.97;;;4.85;61.14
61361;BME280;47232;47.506;18.936;2022-12-08T12:41:51;97858.33;;;4.83;60.73
61361;BME280;47232;47.506;18.936;2022-12-08T12:52:00;97851.66;;;4.74;61.54
61361;BME280;47232;47.506;18.936;2022-12-08T12:54:28;97848.90;;;4.73;61.52
61361;BME280;47232;47.506;18.936;2022-12-08T13:01:57;97845.69;;;4.64;61.74
61361;BME280;47232;47.506;18.936;2022-12-08T13:04:34;97837.14;;;4.61;61.83
61361;BME280;47232;47.506;18.936;2022-12-08T13:07:01;97836.25;;;4.57;61.59
61361;BME280;47232;47.506;18.936;2022-12-08T13:09:32;97833.96;;;4.53;61.54
61361;BME280;47232;47.506;18.936;2022-12-08T13:12:08;97835.13;;;4.49;61.45
61361;BME280;47232;47.506;18.936;2022-12-08T13:14:45;97825.40;;;4.46;61.46
61361;BME280;47232;47.506;18.936;2022-12-08T13:17:14;97813.81;;;4.42;61.82
61361;BME280;47232;47.506;18.936;2022-12-08T13:19:42;97810.67;;;4.37;61.67
61361;BME280;47232;47.506;18.936;2022-12-08T13:22:47;97814.21;;;4.34;61.74
61361;BME280;47232;47.506;18.936;2022-12-08T13:28:28;97816.52;;;4.28;61.84
61361;BME280;47232;47.506;18.936;2022-12-08T13:31:01;97819.40;;;4.27;62.21
61361;BME280;47232;47.506;18.936;2022-12-08T13:33:32;97815.27;;;4.29;62.37
61361;BME280;47232;47.506;18.936;2022-12-08T13:36:22;97810.16;;;4.35;62.96
61361;BME280;47232;47.506;18.936;2022-12-08T13:38:55;97814.66;;;4.42;62.75
61361;BME280;47232;47.506;18.936;2022-12-08T13:41:33;97819.68;;;4.48;63.18
61361;BME280;47232;47.506;18.936;2022-12-08T13:44:08;97823.11;;;4.53;63.22
61361;BME280;47232;47.506;18.936;2022-12-08T13:46:48;97817.52;;;4.55;63.49
61361;BME280;47232;47.506;18.936;2022-12-08T13:49:25;97813.08;;;4.56;63.59
61361;BME280;47232;47.506;18.936;2022-12-08T13:51:53;97813.04;;;4.55;63.32
61361;BME280;47232;47.506;18.936;2022-12-08T13:56:51;97808.80;;;4.53;63.53
61361;BME280;47232;47.506;18.936;2022-12-08T14:01:45;97816.58;;;4.48;63.82
61361;BME280;47232;47.506;18.936;2022-12-08T14:04:20;97808.56;;;4.46;64.22
61361;BME280;47232;47.506;18.936;2022-12-08T14:06:53;97816.96;;;4.42;63.80
61361;BME280;47232;47.506;18.936;2022-12-08T14:09:31;97812.31;;;4.39;63.80
61361;BME280;47232;47.506;18.936;2022-12-08T14:12:44;97805.95;;;4.35;64.14
61361;BME280;47232;47.506;18.936;2022-12-08T14:14:52;97812.03;;;4.30;64.11
61361;BME280;47232;47.506;18.936;2022-12-08T14:17:20;97819.98;;;4.24;64.61
61361;BME280;47232;47.506;18.936;2022-12-08T14:19:55;97819.11;;;4.19;64.38
61361;BME280;47232;47.506;18.936;2022-12-08T14:22:22;97827.56;;;4.15;64.16
61361;BME280;47232;47.506;18.936;2022-12-08T14:24:52;97827.10;;;4.13;64.60
61361;BME280;47232;47.506;18.936;2022-12-08T14:27:22;97837.20;;;4.10;64.73
61361;BME280;47232;47.506;18.936;2022-12-08T14:32:37;97837.41;;;4.05;65.21